sensor_id;sensor_type;location;lat;lon;timestamp;P1;durP1;ratioP1;P2;durP2;ratioP2
55800;SDS011;41730;51.960;20.158;2023-06-22T00:01:43;25.50;;;22.60;;
55800;SDS011;41730;51.960;20.158;2023-06-22T00:04:15;29.30;;;23.40;;
55800;SDS011;41730;51.960;20.158;2023-06-22T00:06:47;28.20;;;23.30;;
55800;SDS011;41730;51.960;20.158;2023-06-22T00:09:19;27.00;;;23.30;;
55800;SDS011;41730;51.960;20.158;2023-06-22T00:11:52;27.70;;;24.10;;
55800;SDS011;41730;51.960;20.158;2023-06-22T00:14:24;27.80;;;23.50;;
55800;SDS011;41730;51.960;20.158;2023-06-22T00:16:55;28.80;;;24.10;;
55800;SDS011;41730;51.960;20.158;2023-06-22T00:19:27;27.50;;;23.10;;
55800;SDS011;41730;51.960;20.158;2023-06-22T00:21:58;28.70;;;23.10;;
55800;SDS011;41730;51.960;20.158;2023-06-22T00:24:31;28.70;;;24.40;;
55800;SDS011;41730;51.960;20.158;2023-06-22T00:27:05;29.80;;;23.20;;
55800;SDS011;41730;51.960;20.158;2023-06-22T00:29:36;28.10;;;24.40;;
55800;SDS011;41730;51.960;20.158;2023-06-22T00:32:08;27.10;;;23.60;;
55800;SDS011;41730;51.960;20.158;2023-06-22T00:34:39;26.60;;;23.10;;
55800;SDS011;41730;51.960;20.158;2023-06-22T00:37:11;26.10;;;23.30;;
55800;SDS011;41730;51.960;20.158;2023-06-22T00:39:43;25.70;;;22.00;;
55800;SDS011;41730;51.960;20.158;2023-06-22T00:42:14;27.70;;;22.30;;
55800;SDS011;41730;51.960;20.158;2023-06-22T00:44:46;27.40;;;23.70;;
55800;SDS011;41730;51.960;20.158;2023-06-22T00:47:18;27.20;;;24.30;;
55800;SDS011;41730;51.960;20.158;2023-06-22T00:49:51;27.40;;;24.50;;
55800;SDS011;41730;51.960;20.158;2023-06-22T00:52:22;27.40;;;23.70;;
55800;SDS011;41730;51.960;20.158;2023-06-22T00:54:57;31.20;;;26.30;;
55800;SDS011;41730;51.960;20.158;2023-06-22T00:57:30;32.60;;;26.80;;
55800;SDS011;41730;51.960;20.158;2023-06-22T01:00:06;35.30;;;29.50;;
55800;SDS011;41730;51.960;20.158;2023-06-22T01:02:46;31.80;;;27.60;;
55800;SDS011;41730;51.960;20.158;2023-06-22T01:05:20;35.30;;;28.80;;
55800;SDS011;41730;51.960;20.158;2023-06-22T01:07:59;30.70;;;27.00;;
55800;SDS011;41730;51.960;20.158;2023-06-22T01:10:39;31.80;;;27.60;;
55800;SDS011;41730;51.960;20.158;2023-06-22T01:13:16;35.30;;;28.40;;
55800;SDS011;41730;51.960;20.158;2023-06-22T01:15:55;31.20;;;27.90;;
55800;SDS011;41730;51.960;20.158;2023-06-22T01:18:31;33.60;;;28.10;;
55800;SDS011;41730;51.960;20.158;2023-06-22T01:21:06;34.00;;;28.50;;
55800;SDS011;41730;51.960;20.158;2023-06-22T01:23:46;33.50;;;27.30;;
55800;SDS011;41730;51.960;20.158;2023-06-22T01:26:32;31.10;;;27.00;;
55800;SDS011;41730;51.960;20.158;2023-06-22T01:29:08;33.00;;;27.30;;
55800;SDS011;41730;51.960;20.158;2023-06-22T01:31:43;33.00;;;27.30;;
55800;SDS011;41730;51.960;20.158;2023-06-22T01:34:17;30.30;;;26.50;;
55800;SDS011;41730;51.960;20.158;2023-06-22T01:36:50;32.00;;;26.30;;
55800;SDS011;41730;51.960;20.158;2023-06-22T01:39:23;31.40;;;26.50;;
55800;SDS011;41730;51.960;20.158;2023-06-22T01:41:57;32.00;;;26.20;;
55800;SDS011;41730;51.960;20.158;2023-06-22T01:44:29;30.00;;;26.40;;
55800;SDS011;41730;51.960;20.158;2023-06-22T01:47:04;30.70;;;25.90;;
55800;SDS011;41730;51.960;20.158;2023-06-22T01:49:36;30.50;;;25.70;;
55800;SDS011;41730;51.960;20.158;2023-06-22T01:52:08;31.80;;;25.10;;
55800;SDS011;41730;51.960;20.158;2023-06-22T01:54:41;31.40;;;25.20;;
55800;SDS011;41730;51.960;20.158;2023-06-22T01:57:12;29.20;;;24.70;;
55800;SDS011;41730;51.960;20.158;2023-06-22T01:59:48;27.40;;;23.90;;
55800;SDS011;41730;51.960;20.158;2023-06-22T02:02:27;30.90;;;25.80;;
55800;SDS011;41730;51.960;20.158;2023-06-22T02:05:02;29.00;;;25.00;;
55800;SDS011;41730;51.960;20.158;2023-06-22T02:07:37;30.80;;;23.70;;
55800;SDS011;41730;51.960;20.158;2023-06-22T02:10:14;30.40;;;24.90;;
55800;SDS011;41730;51.960;20.158;2023-06-22T02:12:49;26.70;;;22.60;;
55800;SDS011;41730;51.960;20.158;2023-06-22T02:15:22;27.60;;;23.90;;
55800;SDS011;41730;51.960;20.158;2023-06-22T02:17:54;24.80;;;21.90;;
55800;SDS011;41730;51.960;20.158;2023-06-22T02:20:26;27.60;;;22.60;;
55800;SDS011;41730;51.960;20.158;2023-06-22T02:22:58;27.50;;;23.30;;
55800;SDS011;41730;51.960;20.158;2023-06-22T02:25:29;28.70;;;23.30;;
55800;SDS011;41730;51.960;20.158;2023-06-22T02:28:01;28.70;;;22.90;;
55800;SDS011;41730;51.960;20.158;2023-06-22T02:30:33;26.50;;;22.90;;
55800;SDS011;41730;51.960;20.158;2023-06-22T02:33:05;28.10;;;23.30;;
55800;SDS011;41730;51.960;20.158;2023-06-22T02:35:36;27.60;;;22.70;;
55800;SDS011;41730;51.960;20.158;2023-06-22T02:38:13;25.70;;;21.90;;
55800;SDS011;41730;51.960;20.158;2023-06-22T02:40:46;25.60;;;21.90;;
55800;SDS011;41730;51.960;20.158;2023-06-22T02:43:17;25.40;;;21.00;;
55800;SDS011;41730;51.960;20.158;2023-06-22T02:45:48;24.30;;;20.80;;
55800;SDS011;41730;51.960;20.158;2023-06-22T02:48:20;26.60;;;21.20;;
55800;SDS011;41730;51.960;20.158;2023-06-22T02:50:52;24.80;;;21.30;;
55800;SDS011;41730;51.960;20.158;2023-06-22T02:53:23;27.00;;;20.70;;
55800;SDS011;41730;51.960;20.158;2023-06-22T02:55:55;25.30;;;20.60;;
55800;SDS011;41730;51.960;20.158;2023-06-22T02:58:29;23.50;;;20.60;;
55800;SDS011;41730;51.960;20.158;2023-06-22T03:01:06;25.10;;;20.80;;
55800;SDS011;41730;51.960;20.158;2023-06-22T03:03:38;25.00;;;20.10;;
55800;SDS011;41730;51.960;20.158;2023-06-22T03:06:10;24.50;;;21.10;;
55800;SDS011;41730;51.960;20.158;2023-06-22T03:08:42;24.60;;;20.20;;
55800;SDS011;41730;51.960;20.158;2023-06-22T03:11:14;24.60;;;20.00;;
55800;SDS011;41730;51.960;20.158;2023-06-22T03:13:45;23.90;;;20.50;;
55800;SDS011;41730;51.960;20.158;2023-06-22T03:16:17;24.20;;;19.10;;
55800;SDS011;41730;51.960;20.158;2023-06-22T03:18:48;23.60;;;18.10;;
55800;SDS011;41730;51.960;20.158;2023-06-22T03:21:21;23.70;;;17.60;;
55800;SDS011;41730;51.960;20.158;2023-06-22T03:23:53;26.00;;;19.50;;
55800;SDS011;41730;51.960;20.158;2023-06-22T03:26:25;22.10;;;18.30;;
55800;SDS011;41730;51.960;20.158;2023-06-22T03:28:59;26.20;;;17.60;;
55800;SDS011;41730;51.960;20.158;2023-06-22T03:31:42;20.60;;;18.30;;
55800;SDS011;41730;51.960;20.158;2023-06-22T03:34:24;22.00;;;18.00;;
55800;SDS011;41730;51.960;20.158;2023-06-22T03:37:08;20.60;;;17.10;;
55800;SDS011;41730;51.960;20.158;2023-06-22T03:39:50;19.10;;;16.30;;
55800;SDS011;41730;51.960;20.158;2023-06-22T03:42:29;19.70;;;15.80;;
55800;SDS011;41730;51.960;20.158;2023-06-22T03:45:00;16.70;;;14.90;;
55800;SDS011;41730;51.960;20.158;2023-06-22T03:47:33;20.30;;;15.20;;
55800;SDS011;41730;51.960;20.158;2023-06-22T03:50:05;19.10;;;15.20;;
55800;SDS011;41730;51.960;20.158;2023-06-22T03:52:38;17.90;;;14.60;;
55800;SDS011;41730;51.960;20.158;2023-06-22T03:55:10;18.80;;;15.00;;
55800;SDS011;41730;51.960;20.158;2023-06-22T03:57:42;18.90;;;14.10;;
55800;SDS011;41730;51.960;20.158;2023-06-22T04:00:14;16.50;;;14.10;;
55800;SDS011;41730;51.960;20.158;2023-06-22T04:02:46;18.90;;;14.30;;
55800;SDS011;41730;51.960;20.158;2023-06-22T04:05:18;15.20;;;13.30;;
55800;SDS011;41730;51.960;20.158;2023-06-22T04:07:50;14.60;;;13.10;;
55800;SDS011;41730;51.960;20.158;2023-06-22T04:10:21;16.50;;;13.00;;
55800;SDS011;41730;51.960;20.158;2023-06-22T04:12:53;17.40;;;12.80;;
55800;SDS011;41730;51.960;20.158;2023-06-22T04:15:24;25.50;;;13.00;;
55800;SDS011;41730;51.960;20.158;2023-06-22T04:17:56;17.60;;;14.00;;
55800;SDS011;41730;51.960;20.158;2023-06-22T04:20:28;14.90;;;12.10;;
55800;SDS011;41730;51.960;20.158;2023-06-22T04:23:01;17.70;;;12.10;;
55800;SDS011;41730;51.960;20.158;2023-06-22T04:25:33;15.50;;;12.30;;
55800;SDS011;41730;51.960;20.158;2023-06-22T04:28:05;14.40;;;12.20;;
55800;SDS011;41730;51.960;20.158;2023-06-22T04:30:40;12.00;;;10.80;;
55800;SDS011;41730;51.960;20.158;2023-06-22T04:33:15;13.60;;;11.70;;
55800;SDS011;41730;51.960;20.158;2023-06-22T04:35:47;13.40;;;11.80;;
55800;SDS011;41730;51.960;20.158;2023-06-22T04:38:19;13.30;;;11.40;;
55800;SDS011;41730;51.960;20.158;2023-06-22T04:40:51;13.40;;;11.30;;
55800;SDS011;41730;51.960;20.158;2023-06-22T04:43:23;13.90;;;11.80;;
55800;SDS011;41730;51.960;20.158;2023-06-22T04:45:58;13.20;;;11.70;;
55800;SDS011;41730;51.960;20.158;2023-06-22T04:48:32;12.10;;;10.60;;
55800;SDS011;41730;51.960;20.158;2023-06-22T04:51:03;12.80;;;11.20;;
55800;SDS011;41730;51.960;20.158;2023-06-22T04:53:36;13.70;;;11.40;;
55800;SDS011;41730;51.960;20.158;2023-06-22T04:56:09;14.80;;;11.30;;
55800;SDS011;41730;51.960;20.158;2023-06-22T04:58:41;13.00;;;11.00;;
55800;SDS011;41730;51.960;20.158;2023-06-22T05:01:12;13.10;;;10.70;;
55800;SDS011;41730;51.960;20.158;2023-06-22T05:03:44;12.80;;;10.70;;
55800;SDS011;41730;51.960;20.158;2023-06-22T05:06:16;13.20;;;11.30;;
55800;SDS011;41730;51.960;20.158;2023-06-22T05:08:48;11.00;;;9.90;;
55800;SDS011;41730;51.960;20.158;2023-06-22T05:11:20;11.80;;;10.00;;
55800;SDS011;41730;51.960;20.158;2023-06-22T05:13:51;11.10;;;10.00;;
55800;SDS011;41730;51.960;20.158;2023-06-22T05:16:23;10.90;;;9.80;;
55800;SDS011;41730;51.960;20.158;2023-06-22T05:18:55;11.10;;;9.40;;
55800;SDS011;41730;51.960;20.158;2023-06-22T05:21:27;11.80;;;9.80;;
55800;SDS011;41730;51.960;20.158;2023-06-22T05:23:59;12.00;;;9.50;;
55800;SDS011;41730;51.960;20.158;2023-06-22T05:26:31;10.60;;;9.00;;
55800;SDS011;41730;51.960;20.158;2023-06-22T05:29:03;12.30;;;10.20;;
55800;SDS011;41730;51.960;20.158;2023-06-22T05:31:35;14.40;;;9.40;;
55800;SDS011;41730;51.960;20.158;2023-06-22T05:34:08;12.60;;;9.10;;
55800;SDS011;41730;51.960;20.158;2023-06-22T05:36:40;12.50;;;9.60;;
55800;SDS011;41730;51.960;20.158;2023-06-22T05:39:13;10.20;;;9.10;;
55800;SDS011;41730;51.960;20.158;2023-06-22T05:41:45;11.30;;;9.30;;
55800;SDS011;41730;51.960;20.158;2023-06-22T05:44:17;12.10;;;9.50;;
55800;SDS011;41730;51.960;20.158;2023-06-22T05:46:49;10.40;;;8.50;;
55800;SDS011;41730;51.960;20.158;2023-06-22T05:49:20;10.50;;;9.20;;
55800;SDS011;41730;51.960;20.158;2023-06-22T05:51:57;10.60;;;8.70;;
55800;SDS011;41730;51.960;20.158;2023-06-22T05:54:29;10.60;;;9.00;;
55800;SDS011;41730;51.960;20.158;2023-06-22T05:57:01;11.80;;;8.90;;
55800;SDS011;41730;51.960;20.158;2023-06-22T05:59:33;11.00;;;9.40;;
55800;SDS011;41730;51.960;20.158;2023-06-22T06:02:05;9.80;;;8.80;;
55800;SDS011;41730;51.960;20.158;2023-06-22T06:04:37;13.10;;;9.20;;
55800;SDS011;41730;51.960;20.158;2023-06-22T06:07:08;12.50;;;9.60;;
55800;SDS011;41730;51.960;20.158;2023-06-22T06:09:40;11.20;;;8.10;;
55800;SDS011;41730;51.960;20.158;2023-06-22T06:12:12;12.60;;;8.60;;
55800;SDS011;41730;51.960;20.158;2023-06-22T06:14:43;11.00;;;9.30;;
55800;SDS011;41730;51.960;20.158;2023-06-22T06:17:15;13.50;;;9.00;;
55800;SDS011;41730;51.960;20.158;2023-06-22T06:19:47;11.70;;;8.50;;
55800;SDS011;41730;51.960;20.158;2023-06-22T06:22:18;10.90;;;9.00;;
55800;SDS011;41730;51.960;20.158;2023-06-22T06:24:51;9.60;;;8.10;;
55800;SDS011;41730;51.960;20.158;2023-06-22T06:27:23;13.20;;;9.10;;
55800;SDS011;41730;51.960;20.158;2023-06-22T06:29:58;10.80;;;9.00;;
55800;SDS011;41730;51.960;20.158;2023-06-22T06:32:30;11.70;;;8.90;;
55800;SDS011;41730;51.960;20.158;2023-06-22T06:35:02;13.50;;;8.50;;
55800;SDS011;41730;51.960;20.158;2023-06-22T06:37:35;10.30;;;7.70;;
55800;SDS011;41730;51.960;20.158;2023-06-22T06:40:08;8.70;;;7.50;;
55800;SDS011;41730;51.960;20.158;2023-06-22T06:42:42;10.30;;;8.10;;
55800;SDS011;41730;51.960;20.158;2023-06-22T06:45:15;10.60;;;8.20;;
55800;SDS011;41730;51.960;20.158;2023-06-22T06:47:48;10.10;;;7.90;;
55800;SDS011;41730;51.960;20.158;2023-06-22T06:50:21;9.40;;;7.60;;
55800;SDS011;41730;51.960;20.158;2023-06-22T06:52:52;10.30;;;7.90;;
55800;SDS011;41730;51.960;20.158;2023-06-22T06:55:27;9.00;;;7.50;;
55800;SDS011;41730;51.960;20.158;2023-06-22T06:58:01;9.20;;;7.20;;
55800;SDS011;41730;51.960;20.158;2023-06-22T07:00:35;9.50;;;7.50;;
55800;SDS011;41730;51.960;20.158;2023-06-22T07:03:07;10.90;;;7.10;;
55800;SDS011;41730;51.960;20.158;2023-06-22T07:05:39;8.30;;;6.20;;
55800;SDS011;41730;51.960;20.158;2023-06-22T07:08:11;9.70;;;6.40;;
55800;SDS011;41730;51.960;20.158;2023-06-22T07:10:43;10.30;;;7.50;;
55800;SDS011;41730;51.960;20.158;2023-06-22T07:13:14;10.20;;;6.60;;
55800;SDS011;41730;51.960;20.158;2023-06-22T07:15:46;9.00;;;5.60;;
55800;SDS011;41730;51.960;20.158;2023-06-22T07:18:18;6.80;;;5.60;;
55800;SDS011;41730;51.960;20.158;2023-06-22T07:20:49;10.00;;;7.00;;
55800;SDS011;41730;51.960;20.158;2023-06-22T07:23:21;7.30;;;5.90;;
55800;SDS011;41730;51.960;20.158;2023-06-22T07:25:53;7.50;;;5.60;;
55800;SDS011;41730;51.960;20.158;2023-06-22T07:28:26;7.60;;;5.00;;
55800;SDS011;41730;51.960;20.158;2023-06-22T07:30:59;7.10;;;4.90;;
55800;SDS011;41730;51.960;20.158;2023-06-22T07:33:33;7.70;;;5.10;;
55800;SDS011;41730;51.960;20.158;2023-06-22T07:36:05;8.10;;;4.70;;
55800;SDS011;41730;51.960;20.158;2023-06-22T07:38:37;6.30;;;4.30;;
55800;SDS011;41730;51.960;20.158;2023-06-22T07:41:08;5.50;;;3.70;;
55800;SDS011;41730;51.960;20.158;2023-06-22T07:43:40;7.00;;;3.90;;
55800;SDS011;41730;51.960;20.158;2023-06-22T07:46:12;6.60;;;3.90;;
55800;SDS011;41730;51.960;20.158;2023-06-22T07:48:44;5.60;;;3.20;;
55800;SDS011;41730;51.960;20.158;2023-06-22T07:51:16;5.60;;;3.50;;
55800;SDS011;41730;51.960;20.158;2023-06-22T07:53:48;4.80;;;2.80;;
55800;SDS011;41730;51.960;20.158;2023-06-22T07:56:20;4.90;;;2.90;;
55800;SDS011;41730;51.960;20.158;2023-06-22T07:58:52;4.80;;;2.90;;
55800;SDS011;41730;51.960;20.158;2023-06-22T08:01:26;5.10;;;3.40;;
55800;SDS011;41730;51.960;20.158;2023-06-22T08:03:58;3.90;;;2.70;;
55800;SDS011;41730;51.960;20.158;2023-06-22T08:06:31;3.90;;;2.90;;
55800;SDS011;41730;51.960;20.158;2023-06-22T08:09:02;5.10;;;2.70;;
55800;SDS011;41730;51.960;20.158;2023-06-22T08:11:34;5.80;;;2.40;;
55800;SDS011;41730;51.960;20.158;2023-06-22T08:14:06;4.30;;;2.70;;
55800;SDS011;41730;51.960;20.158;2023-06-22T08:16:38;4.10;;;2.80;;
55800;SDS011;41730;51.960;20.158;2023-06-22T08:19:10;5.40;;;2.60;;
55800;SDS011;41730;51.960;20.158;2023-06-22T08:21:42;5.20;;;2.10;;
55800;SDS011;41730;51.960;20.158;2023-06-22T08:24:14;5.30;;;2.70;;
55800;SDS011;41730;51.960;20.158;2023-06-22T08:26:46;5.40;;;2.60;;
55800;SDS011;41730;51.960;20.158;2023-06-22T08:29:20;5.50;;;2.80;;
55800;SDS011;41730;51.960;20.158;2023-06-22T08:31:51;4.10;;;2.70;;
55800;SDS011;41730;51.960;20.158;2023-06-22T08:34:23;4.60;;;2.60;;
55800;SDS011;41730;51.960;20.158;2023-06-22T08:36:56;4.90;;;2.80;;
55800;SDS011;41730;51.960;20.158;2023-06-22T08:39:28;3.20;;;2.30;;
55800;SDS011;41730;51.960;20.158;2023-06-22T08:42:03;6.00;;;2.40;;
55800;SDS011;41730;51.960;20.158;2023-06-22T08:44:36;3.50;;;2.60;;
55800;SDS011;41730;51.960;20.158;2023-06-22T08:47:08;6.40;;;2.80;;
55800;SDS011;41730;51.960;20.158;2023-06-22T08:49:40;3.90;;;2.30;;
55800;SDS011;41730;51.960;20.158;2023-06-22T08:52:11;3.20;;;2.20;;
55800;SDS011;41730;51.960;20.158;2023-06-22T08:54:43;6.50;;;2.20;;
55800;SDS011;41730;51.960;20.158;2023-06-22T08:57:15;4.10;;;2.40;;
55800;SDS011;41730;51.960;20.158;2023-06-22T08:59:47;3.50;;;2.50;;
55800;SDS011;41730;51.960;20.158;2023-06-22T09:02:20;2.80;;;2.10;;
55800;SDS011;41730;51.960;20.158;2023-06-22T09:04:52;3.00;;;2.10;;
55800;SDS011;41730;51.960;20.158;2023-06-22T09:07:24;4.30;;;2.50;;
55800;SDS011;41730;51.960;20.158;2023-06-22T09:09:56;5.00;;;2.70;;
55800;SDS011;41730;51.960;20.158;2023-06-22T09:12:31;3.20;;;2.50;;
55800;SDS011;41730;51.960;20.158;2023-06-22T09:15:06;4.10;;;2.40;;
55800;SDS011;41730;51.960;20.158;2023-06-22T09:17:54;3.50;;;2.50;;
55800;SDS011;41730;51.960;20.158;2023-06-22T09:20:25;4.00;;;2.60;;
55800;SDS011;41730;51.960;20.158;2023-06-22T09:22:58;3.70;;;2.50;;
55800;SDS011;41730;51.960;20.158;2023-06-22T09:25:29;3.90;;;2.70;;
55800;SDS011;41730;51.960;20.158;2023-06-22T09:28:01;3.70;;;2.60;;
55800;SDS011;41730;51.960;20.158;2023-06-22T09:30:33;3.90;;;2.80;;
55800;SDS011;41730;51.960;20.158;2023-06-22T09:33:05;5.00;;;3.10;;
55800;SDS011;41730;51.960;20.158;2023-06-22T09:35:37;4.40;;;2.80;;
55800;SDS011;41730;51.960;20.158;2023-06-22T09:38:09;4.10;;;2.40;;
55800;SDS011;41730;51.960;20.158;2023-06-22T09:40:41;4.20;;;2.70;;
55800;SDS011;41730;51.960;20.158;2023-06-22T09:43:12;3.20;;;2.40;;
55800;SDS011;41730;51.960;20.158;2023-06-22T09:45:44;3.50;;;1.90;;
55800;SDS011;41730;51.960;20.158;2023-06-22T09:48:16;6.30;;;2.80;;
55800;SDS011;41730;51.960;20.158;2023-06-22T09:50:48;3.00;;;2.50;;
55800;SDS011;41730;51.960;20.158;2023-06-22T09:53:19;5.30;;;2.40;;
55800;SDS011;41730;51.960;20.158;2023-06-22T09:55:51;3.90;;;2.60;;
55800;SDS011;41730;51.960;20.158;2023-06-22T09:58:23;4.40;;;2.30;;
55800;SDS011;41730;51.960;20.158;2023-06-22T10:00:55;6.60;;;2.80;;
55800;SDS011;41730;51.960;20.158;2023-06-22T10:03:27;4.10;;;2.60;;
55800;SDS011;41730;51.960;20.158;2023-06-22T10:06:00;4.20;;;2.70;;
55800;SDS011;41730;51.960;20.158;2023-06-22T10:08:32;4.70;;;2.80;;
55800;SDS011;41730;51.960;20.158;2023-06-22T10:11:05;3.90;;;2.60;;
55800;SDS011;41730;51.960;20.158;2023-06-22T10:13:36;4.20;;;2.80;;
55800;SDS011;41730;51.960;20.158;2023-06-22T10:16:08;4.50;;;2.40;;
55800;SDS011;41730;51.960;20.158;2023-06-22T10:18:40;4.20;;;2.30;;
55800;SDS011;41730;51.960;20.158;2023-06-22T10:21:12;5.10;;;2.60;;
55800;SDS011;41730;51.960;20.158;2023-06-22T10:23:45;4.90;;;2.30;;
55800;SDS011;41730;51.960;20.158;2023-06-22T10:26:16;8.20;;;2.70;;
55800;SDS011;41730;51.960;20.158;2023-06-22T10:28:48;3.10;;;2.30;;
55800;SDS011;41730;51.960;20.158;2023-06-22T10:31:40;4.20;;;2.20;;
55800;SDS011;41730;51.960;20.158;2023-06-22T10:34:12;3.80;;;2.50;;
55800;SDS011;41730;51.960;20.158;2023-06-22T10:36:43;5.40;;;2.90;;
55800;SDS011;41730;51.960;20.158;2023-06-22T10:39:17;5.30;;;2.70;;
55800;SDS011;41730;51.960;20.158;2023-06-22T10:41:48;4.90;;;2.50;;
55800;SDS011;41730;51.960;20.158;2023-06-22T10:44:20;4.40;;;2.40;;
55800;SDS011;41730;51.960;20.158;2023-06-22T10:46:52;4.60;;;2.70;;
55800;SDS011;41730;51.960;20.158;2023-06-22T10:49:27;5.20;;;2.40;;
55800;SDS011;41730;51.960;20.158;2023-06-22T10:51:58;3.50;;;2.60;;
55800;SDS011;41730;51.960;20.158;2023-06-22T10:54:30;5.20;;;2.60;;
55800;SDS011;41730;51.960;20.158;2023-06-22T10:57:02;3.70;;;2.80;;
55800;SDS011;41730;51.960;20.158;2023-06-22T10:59:34;3.70;;;2.60;;
55800;SDS011;41730;51.960;20.158;2023-06-22T11:02:06;5.90;;;2.30;;
55800;SDS011;41730;51.960;20.158;2023-06-22T11:04:38;4.40;;;2.30;;
55800;SDS011;41730;51.960;20.158;2023-06-22T11:07:10;5.60;;;2.80;;
55800;SDS011;41730;51.960;20.158;2023-06-22T11:09:42;3.60;;;2.30;;
55800;SDS011;41730;51.960;20.158;2023-06-22T11:12:14;3.50;;;2.30;;
55800;SDS011;41730;51.960;20.158;2023-06-22T11:14:46;3.50;;;2.40;;
55800;SDS011;41730;51.960;20.158;2023-06-22T11:19:50;5.80;;;2.40;;
55800;SDS011;41730;51.960;20.158;2023-06-22T11:22:22;4.30;;;2.50;;
55800;SDS011;41730;51.960;20.158;2023-06-22T11:24:54;4.40;;;2.50;;
55800;SDS011;41730;51.960;20.158;2023-06-22T11:27:25;4.40;;;2.60;;
55800;SDS011;41730;51.960;20.158;2023-06-22T11:29:57;5.50;;;2.90;;
55800;SDS011;41730;51.960;20.158;2023-06-22T11:32:29;4.60;;;3.00;;
55800;SDS011;41730;51.960;20.158;2023-06-22T11:35:01;4.20;;;2.50;;
55800;SDS011;41730;51.960;20.158;2023-06-22T11:37:34;5.10;;;2.50;;
55800;SDS011;41730;51.960;20.158;2023-06-22T11:40:07;4.40;;;2.70;;
55800;SDS011;41730;51.960;20.158;2023-06-22T11:42:40;4.10;;;2.80;;
55800;SDS011;41730;51.960;20.158;2023-06-22T11:45:12;4.10;;;3.10;;
55800;SDS011;41730;51.960;20.158;2023-06-22T11:47:44;7.70;;;3.30;;
55800;SDS011;41730;51.960;20.158;2023-06-22T11:50:16;5.20;;;2.70;;
55800;SDS011;41730;51.960;20.158;2023-06-22T11:52:48;5.90;;;3.40;;
55800;SDS011;41730;51.960;20.158;2023-06-22T11:55:21;4.10;;;2.80;;
55800;SDS011;41730;51.960;20.158;2023-06-22T11:57:53;5.60;;;2.80;;
55800;SDS011;41730;51.960;20.158;2023-06-22T12:00:28;3.90;;;2.70;;
55800;SDS011;41730;51.960;20.158;2023-06-22T12:03:16;3.30;;;2.70;;
55800;SDS011;41730;51.960;20.158;2023-06-22T12:05:50;6.90;;;2.90;;
55800;SDS011;41730;51.960;20.158;2023-06-22T12:08:22;3.40;;;2.40;;
55800;SDS011;41730;51.960;20.158;2023-06-22T12:10:54;4.20;;;2.60;;
55800;SDS011;41730;51.960;20.158;2023-06-22T12:13:25;5.60;;;2.60;;
55800;SDS011;41730;51.960;20.158;2023-06-22T12:15:57;5.20;;;2.60;;
55800;SDS011;41730;51.960;20.158;2023-06-22T12:18:29;3.70;;;2.20;;
55800;SDS011;41730;51.960;20.158;2023-06-22T12:21:01;2.60;;;2.10;;
55800;SDS011;41730;51.960;20.158;2023-06-22T12:23:32;3.10;;;2.10;;
55800;SDS011;41730;51.960;20.158;2023-06-22T12:26:04;5.50;;;2.50;;
55800;SDS011;41730;51.960;20.158;2023-06-22T12:28:36;3.90;;;2.20;;
55800;SDS011;41730;51.960;20.158;2023-06-22T12:31:08;3.80;;;2.20;;
55800;SDS011;41730;51.960;20.158;2023-06-22T12:33:40;4.00;;;2.10;;
55800;SDS011;41730;51.960;20.158;2023-06-22T12:36:11;3.40;;;2.10;;
55800;SDS011;41730;51.960;20.158;2023-06-22T12:38:44;3.10;;;1.80;;
55800;SDS011;41730;51.960;20.158;2023-06-22T12:41:16;3.10;;;2.00;;
55800;SDS011;41730;51.960;20.158;2023-06-22T12:43:49;2.70;;;1.80;;
55800;SDS011;41730;51.960;20.158;2023-06-22T12:46:21;3.10;;;2.10;;
55800;SDS011;41730;51.960;20.158;2023-06-22T12:48:54;2.80;;;1.80;;
55800;SDS011;41730;51.960;20.158;2023-06-22T12:51:26;3.40;;;2.10;;
55800;SDS011;41730;51.960;20.158;2023-06-22T12:53:58;3.20;;;2.00;;
55800;SDS011;41730;51.960;20.158;2023-06-22T12:56:29;4.20;;;2.10;;
55800;SDS011;41730;51.960;20.158;2023-06-22T12:59:03;3.80;;;2.20;;
55800;SDS011;41730;51.960;20.158;2023-06-22T13:01:37;3.10;;;2.30;;
55800;SDS011;41730;51.960;20.158;2023-06-22T13:04:09;5.00;;;2.50;;
55800;SDS011;41730;51.960;20.158;2023-06-22T13:06:43;3.50;;;2.50;;
55800;SDS011;41730;51.960;20.158;2023-06-22T13:09:18;3.50;;;2.20;;
55800;SDS011;41730;51.960;20.158;2023-06-22T13:11:50;4.30;;;2.40;;
55800;SDS011;41730;51.960;20.158;2023-06-22T13:14:22;3.80;;;2.50;;
55800;SDS011;41730;51.960;20.158;2023-06-22T13:16:54;5.00;;;2.80;;
55800;SDS011;41730;51.960;20.158;2023-06-22T13:19:26;4.30;;;2.80;;
55800;SDS011;41730;51.960;20.158;2023-06-22T13:22:00;4.00;;;2.50;;
55800;SDS011;41730;51.960;20.158;2023-06-22T13:24:32;3.40;;;2.30;;
55800;SDS011;41730;51.960;20.158;2023-06-22T13:27:04;3.50;;;2.50;;
55800;SDS011;41730;51.960;20.158;2023-06-22T13:29:36;5.50;;;2.50;;
55800;SDS011;41730;51.960;20.158;2023-06-22T13:32:08;4.80;;;2.50;;
55800;SDS011;41730;51.960;20.158;2023-06-22T13:34:40;5.10;;;2.70;;
55800;SDS011;41730;51.960;20.158;2023-06-22T13:37:12;3.60;;;2.40;;
55800;SDS011;41730;51.960;20.158;2023-06-22T13:39:44;3.50;;;2.60;;
55800;SDS011;41730;51.960;20.158;2023-06-22T13:42:15;3.90;;;2.40;;
55800;SDS011;41730;51.960;20.158;2023-06-22T13:44:47;3.80;;;2.50;;
55800;SDS011;41730;51.960;20.158;2023-06-22T13:47:19;5.90;;;2.40;;
55800;SDS011;41730;51.960;20.158;2023-06-22T13:49:51;4.40;;;2.60;;
55800;SDS011;41730;51.960;20.158;2023-06-22T13:52:22;5.70;;;2.50;;
55800;SDS011;41730;51.960;20.158;2023-06-22T13:54:54;5.90;;;2.60;;
55800;SDS011;41730;51.960;20.158;2023-06-22T13:57:26;4.70;;;2.60;;
55800;SDS011;41730;51.960;20.158;2023-06-22T13:59:57;4.30;;;2.50;;
55800;SDS011;41730;51.960;20.158;2023-06-22T14:02:29;4.80;;;2.70;;
55800;SDS011;41730;51.960;20.158;2023-06-22T14:05:01;4.80;;;2.60;;
55800;SDS011;41730;51.960;20.158;2023-06-22T14:07:34;4.50;;;2.50;;
55800;SDS011;41730;51.960;20.158;2023-06-22T14:10:06;6.40;;;2.40;;
55800;SDS011;41730;51.960;20.158;2023-06-22T14:12:39;3.50;;;2.10;;
55800;SDS011;41730;51.960;20.158;2023-06-22T14:15:10;4.10;;;2.40;;
55800;SDS011;41730;51.960;20.158;2023-06-22T14:17:42;4.40;;;2.40;;
55800;SDS011;41730;51.960;20.158;2023-06-22T14:20:14;5.00;;;2.40;;
55800;SDS011;41730;51.960;20.158;2023-06-22T14:22:46;5.70;;;2.50;;
55800;SDS011;41730;51.960;20.158;2023-06-22T14:25:17;4.00;;;2.60;;
55800;SDS011;41730;51.960;20.158;2023-06-22T14:27:49;4.90;;;2.50;;
55800;SDS011;41730;51.960;20.158;2023-06-22T14:30:21;3.90;;;2.40;;
55800;SDS011;41730;51.960;20.158;2023-06-22T14:32:53;5.00;;;2.40;;
55800;SDS011;41730;51.960;20.158;2023-06-22T14:35:25;3.70;;;2.10;;
55800;SDS011;41730;51.960;20.158;2023-06-22T14:37:56;3.40;;;2.30;;
55800;SDS011;41730;51.960;20.158;2023-06-22T14:40:28;5.90;;;2.50;;
55800;SDS011;41730;51.960;20.158;2023-06-22T14:43:20;4.40;;;2.20;;
55800;SDS011;41730;51.960;20.158;2023-06-22T14:45:53;3.10;;;2.00;;
55800;SDS011;41730;51.960;20.158;2023-06-22T14:48:25;6.40;;;2.50;;
55800;SDS011;41730;51.960;20.158;2023-06-22T14:50:57;3.50;;;2.40;;
55800;SDS011;41730;51.960;20.158;2023-06-22T14:53:28;3.40;;;2.60;;
55800;SDS011;41730;51.960;20.158;2023-06-22T14:56:00;7.80;;;2.40;;
55800;SDS011;41730;51.960;20.158;2023-06-22T14:58:32;3.90;;;2.60;;